Time;durP1;ratioP1;P1;durP2;ratioP2;P2;SDS_P1;SDS_P2;PMS_P1;PMS_P2;Temp;Humidity;BMP_temperature;BMP_pressure;BME280_temperature;BME280_humidity;BME280_pressure;Samples;Min_cycle;Max_cycle;Signal;HPM_P1;HPM_P2
2022/10/01 00:01:23;;;;;;;1.27;1.17;;;21.80;60.60;;;;;;5022018;28;43478;-58
2022/10/01 00:03:51;;;;;;;1.10;1.10;;;21.80;60.70;;;;;;5020867;28;43851;-57
2022/10/01 00:06:21;;;;;;;1.52;1.42;;;21.80;60.70;;;;;;5021436;28;43428;-58
2022/10/01 00:08:49;;;;;;;1.45;1.35;;;21.80;60.70;;;;;;5022299;28;43563;-57
2022/10/01 00:11:20;;;;;;;1.00;1.00;;;21.80;60.80;;;;;;5021417;28;43640;-58
2022/10/01 00:13:48;;;;;;;;;;;21.70;60.70;;;;;;5022275;28;43906;-58
2022/10/01 00:16:22;;;;;;;1.25;1.17;;;21.70;60.80;;;;;;5021723;28;43495;-58
2022/10/01 00:18:50;;;;;;;1.20;1.10;;;21.70;60.80;;;;;;5018086;28;43428;-58
2022/10/01 00:21:20;;;;;;;1.38;1.27;;;21.70;60.90;;;;;;5021494;28;43426;-58
2022/10/01 00:23:52;;;;;;;1.05;0.95;;;21.70;60.90;;;;;;5021395;28;43801;-57
2022/10/01 00:26:21;;;;;;;1.20;1.10;;;21.70;60.90;;;;;;5020723;28;43375;-58
2022/10/01 00:28:54;;;;;;;1.13;1.02;;;21.70;60.90;;;;;;5021739;28;43512;-58
2022/10/01 00:31:22;;;;;;;1.35;1.10;;;21.60;60.80;;;;;;5020888;28;43368;-58
2022/10/01 00:33:54;;;;;;;1.33;1.20;;;21.60;60.90;;;;;;5021285;28;44026;-58
2022/10/01 00:36:21;;;;;;;1.00;1.00;;;21.60;60.90;;;;;;5021280;28;43905;-57
2022/10/01 00:38:49;;;;;;;1.02;1.02;;;21.60;60.90;;;;;;5022355;28;43402;-58
2022/10/01 00:41:17;;;;;;;1.10;1.10;;;21.60;60.90;;;;;;5024381;28;43442;-58
2022/10/01 00:43:49;;;;;;;1.17;1.10;;;21.60;61.00;;;;;;5023287;28;44725;-58
2022/10/01 00:46:26;;;;;;;1.20;1.10;;;21.60;61.00;;;;;;5023629;28;43416;-58
2022/10/01 00:48:59;;;;;;;1.45;0.93;;;21.60;61.00;;;;;;5024794;28;43381;-58
2022/10/01 00:51:38;;;;;;;1.23;1.02;;;21.50;61.00;;;;;;5024524;28;43447;-58
2022/10/01 00:54:11;;;;;;;1.00;1.00;;;21.50;61.00;;;;;;5024057;28;44073;-58
2022/10/01 00:56:39;;;;;;;1.75;1.20;;;21.50;61.00;;;;;;5018076;28;43394;-57
2022/10/01 00:59:07;;;;;;;1.10;1.10;;;21.50;61.00;;;;;;5024918;28;43396;-57
2022/10/01 01:01:37;;;;;;;1.05;0.90;;;21.50;61.10;;;;;;5021988;28;43640;-57
2022/10/01 01:04:15;;;;;;;1.27;1.17;;;21.50;61.10;;;;;;5023120;28;44750;-57
2022/10/01 01:06:56;;;;;;;1.77;1.00;;;21.50;61.10;;;;;;5022251;28;44020;-57
2022/10/01 01:09:35;;;;;;;;;;;21.50;61.10;;;;;;5024581;28;43393;-57
2022/10/01 01:12:21;;;;;;;1.67;1.20;;;21.40;61.00;;;;;;5021957;28;43387;-57
2022/10/01 01:14:54;;;;;;;1.00;1.00;;;21.40;61.10;;;;;;5019199;28;43930;-57
2022/10/01 01:17:40;;;;;;;1.23;1.13;;;21.40;61.10;;;;;;5024058;28;43385;-57
2022/10/01 01:20:27;;;;;;;1.40;1.30;;;21.40;61.20;;;;;;5022843;28;43404;-57
2022/10/01 01:23:09;;;;;;;1.30;1.15;;;21.40;61.10;;;;;;5021817;28;43459;-57
2022/10/01 01:26:11;;;;;;;1.20;1.10;;;21.40;61.30;;;;;;5023505;28;43909;-58
2022/10/01 01:28:45;;;;;;;1.05;1.05;;;21.40;61.20;;;;;;5020664;28;44020;-57
2022/10/01 01:31:23;;;;;;;1.10;1.00;;;21.40;61.30;;;;;;5024382;28;43387;-57
2022/10/01 01:33:54;;;;;;;0.90;0.90;;;21.30;61.20;;;;;;5022892;28;43549;-57
2022/10/01 01:36:34;;;;;;;1.15;1.15;;;21.30;61.30;;;;;;5021675;28;43693;-58
2022/10/01 01:39:08;;;;;;;0.93;0.93;;;21.30;61.90;;;;;;5021314;28;44002;-57
2022/10/01 01:41:40;;;;;;;1.60;1.20;;;21.30;61.20;;;;;;5020477;28;43369;-57
2022/10/01 01:44:11;;;;;;;1.10;1.10;;;21.30;61.30;;;;;;5022816;28;43429;-57
2022/10/01 01:46:43;;;;;;;1.20;1.10;;;21.30;61.30;;;;;;5023196;28;43816;-57
2022/10/01 01:49:11;;;;;;;1.10;1.05;;;21.30;61.30;;;;;;5021658;28;43359;-58
2022/10/01 01:52:06;;;;;;;1.35;1.25;;;21.30;61.30;;;;;;5023074;28;44140;-57
2022/10/01 01:54:35;;;;;;;0.95;0.95;;;21.30;61.30;;;;;;4993406;28;43471;-58
2022/10/01 01:57:03;;;;;;;1.10;1.10;;;21.20;61.30;;;;;;5023142;28;43791;-57
2022/10/01 01:59:32;;;;;;;1.00;1.00;;;21.20;61.40;;;;;;5022934;28;43332;-57
2022/10/01 02:02:00;;;;;;;1.05;1.00;;;21.20;61.30;;;;;;5020680;28;43464;-57
2022/10/01 02:04:45;;;;;;;1.23;1.13;;;21.20;61.30;;;;;;5022244;28;43444;-57
2022/10/01 02:07:27;;;;;;;1.10;1.00;;;21.20;61.30;;;;;;5023727;28;44842;-57
2022/10/01 02:10:30;;;;;;;1.05;1.05;;;21.20;61.40;;;;;;5020374;28;43583;-57
2022/10/01 02:13:10;;;;;;;1.48;1.00;;;21.20;61.40;;;;;;5023697;28;43377;-57
2022/10/01 02:15:47;;;;;;;1.05;0.95;;;21.10;61.40;;;;;;5021536;28;43460;-57
2022/10/01 02:18:41;;;;;;;1.13;1.02;;;21.10;61.40;;;;;;5020333;28;43787;-57
2022/10/01 02:21:24;;;;;;;1.17;1.10;;;21.10;61.40;;;;;;5023637;28;43312;-57
2022/10/01 02:24:01;;;;;;;0.98;0.98;;;21.10;61.50;;;;;;5020608;28;43452;-57
2022/10/01 02:26:30;;;;;;;1.10;1.00;;;21.10;61.50;;;;;;5021220;28;43401;-57
2022/10/01 02:29:03;;;;;;;0.85;0.85;;;21.10;61.50;;;;;;5023344;28;44810;-57
2022/10/01 02:31:32;;;;;;;0.85;0.80;;;21.10;61.50;;;;;;5017501;28;43404;-57
2022/10/01 02:34:03;;;;;;;0.80;0.80;;;21.10;61.50;;;;;;5022026;28;43487;-57
2022/10/01 02:36:32;;;;;;;1.05;0.98;;;21.10;61.50;;;;;;5021404;28;43453;-59
2022/10/01 02:39:02;;;;;;;0.98;0.93;;;21.10;61.50;;;;;;5022598;28;44857;-59
2022/10/01 02:41:34;;;;;;;1.20;1.15;;;21.10;61.50;;;;;;5022283;28;43503;-59
2022/10/01 02:44:09;;;;;;;1.17;1.02;;;21.00;61.40;;;;;;5005032;28;43442;-59
2022/10/01 02:46:44;;;;;;;0.80;0.80;;;21.00;61.50;;;;;;5020506;28;43429;-59
2022/10/01 02:49:13;;;;;;;0.73;0.73;;;21.00;61.40;;;;;;5018759;28;43782;-57
2022/10/01 02:52:03;;;;;;;0.75;0.75;;;21.00;61.50;;;;;;5021593;28;43340;-57
2022/10/01 02:54:34;;;;;;;0.73;0.73;;;21.00;61.50;;;;;;5021062;28;43420;-56
2022/10/01 02:59:50;;;;;;;1.15;1.00;;;21.00;61.50;;;;;;5021086;28;44034;-57
2022/10/01 03:02:19;;;;;;;1.02;0.98;;;21.00;61.60;;;;;;5021561;28;43467;-57
2022/10/01 03:04:47;;;;;;;1.13;0.80;;;21.00;61.60;;;;;;5021713;28;43586;-57
2022/10/01 03:07:15;;;;;;;0.70;0.70;;;21.00;61.60;;;;;;5022140;28;43433;-57
2022/10/01 03:09:43;;;;;;;0.90;0.90;;;20.90;61.60;;;;;;5022700;28;44000;-57
2022/10/01 03:12:10;;;;;;;0.90;0.90;;;20.90;61.60;;;;;;5022626;28;44315;-57
2022/10/01 03:14:38;;;;;;;0.80;0.80;;;20.90;61.50;;;;;;5020372;28;43493;-57
2022/10/01 03:17:06;;;;;;;0.80;0.80;;;20.90;61.50;;;;;;5022686;28;43458;-57
2022/10/01 03:19:33;;;;;;;0.70;0.70;;;20.90;61.60;;;;;;5021722;28;44655;-59
2022/10/01 03:22:01;;;;;;;0.80;0.80;;;20.90;61.60;;;;;;5020179;28;43456;-60
2022/10/01 03:24:28;;;;;;;1.13;0.90;;;20.90;61.60;;;;;;5022074;28;43385;-60
2022/10/01 03:26:56;;;;;;;0.60;0.60;;;20.90;61.60;;;;;;5022655;28;43993;-59
2022/10/01 03:29:24;;;;;;;0.70;0.70;;;20.90;61.70;;;;;;5020256;28;44775;-59
2022/10/01 03:31:52;;;;;;;0.80;0.80;;;20.90;61.60;;;;;;5022034;28;43400;-60
2022/10/01 03:34:20;;;;;;;0.88;0.88;;;20.90;61.60;;;;;;5020341;28;43541;-59
2022/10/01 03:36:48;;;;;;;0.98;0.98;;;20.90;61.70;;;;;;5022077;28;43470;-59
2022/10/01 03:39:16;;;;;;;0.88;0.80;;;20.90;61.70;;;;;;5014628;28;43947;-59
2022/10/01 03:41:44;;;;;;;0.70;0.70;;;20.90;61.70;;;;;;5049171;28;43419;-59
2022/10/01 03:44:11;;;;;;;0.80;0.80;;;20.80;61.70;;;;;;5021110;28;43503;-59
2022/10/01 03:46:39;;;;;;;0.75;0.75;;;20.80;61.60;;;;;;5021386;28;43545;-59
2022/10/01 03:49:06;;;;;;;1.27;0.70;;;20.80;61.60;;;;;;5021607;28;43810;-60
2022/10/01 03:51:35;;;;;;;0.80;0.80;;;20.80;61.70;;;;;;5021741;28;43388;-59
2022/10/01 03:54:05;;;;;;;0.77;0.77;;;20.80;61.70;;;;;;5022309;28;44047;-59
2022/10/01 03:56:34;;;;;;;0.80;0.80;;;20.80;61.70;;;;;;5020740;28;43514;-59
2022/10/01 03:59:01;;;;;;;0.60;0.60;;;20.80;61.70;;;;;;5022176;28;43815;-59
2022/10/01 04:01:29;;;;;;;0.80;0.80;;;20.80;61.70;;;;;;5021380;28;43726;-60
2022/10/01 04:03:58;;;;;;;0.68;0.68;;;20.80;61.80;;;;;;5021412;28;43410;-59
2022/10/01 04:06:25;;;;;;;0.60;0.60;;;20.70;61.70;;;;;;5021283;28;43481;-59
2022/10/01 04:08:53;;;;;;;0.88;0.80;;;20.70;61.80;;;;;;5022029;28;43901;-60
2022/10/01 04:11:20;;;;;;;0.55;0.55;;;20.70;61.80;;;;;;5020842;28;43358;-59
2022/10/01 04:13:48;;;;;;;0.52;0.52;;;20.70;61.70;;;;;;5024953;28;43348;-60
2022/10/01 04:16:15;;;;;;;0.80;0.80;;;20.70;61.80;;;;;;5006923;28;43475;-60
2022/10/01 04:18:43;;;;;;;0.50;0.50;;;20.70;61.80;;;;;;5021723;28;43612;-60
2022/10/01 04:21:11;;;;;;;0.60;0.57;;;20.70;61.80;;;;;;5025345;28;43400;-59
2022/10/01 04:23:39;;;;;;;0.68;0.68;;;20.70;61.80;;;;;;5024222;28;43388;-60
2022/10/01 04:26:07;;;;;;;0.40;0.40;;;20.70;61.70;;;;;;5025101;28;43466;-59
2022/10/01 04:28:34;;;;;;;0.50;0.50;;;20.70;61.70;;;;;;5024596;28;44726;-59
2022/10/01 04:33:48;;;;;;;0.68;0.60;;;20.70;61.80;;;;;;5025161;28;43399;-60
2022/10/01 04:36:16;;;;;;;0.60;0.60;;;20.70;61.80;;;;;;5024855;28;43485;-60
2022/10/01 04:38:43;;;;;;;0.45;0.45;;;20.60;61.80;;;;;;5024074;28;43798;-59
2022/10/01 04:41:12;;;;;;;0.50;0.50;;;20.60;61.80;;;;;;5022590;28;43405;-59
2022/10/01 04:43:40;;;;;;;0.40;0.40;;;20.60;61.80;;;;;;5024460;28;43500;-59
2022/10/01 04:46:07;;;;;;;0.60;0.60;;;20.60;61.90;;;;;;5021481;28;43451;-60
2022/10/01 04:48:35;;;;;;;0.60;0.60;;;20.60;61.90;;;;;;5023968;28;43909;-60
2022/10/01 04:51:02;;;;;;;0.50;0.50;;;20.60;61.90;;;;;;5024529;28;43397;-59
2022/10/01 04:53:30;;;;;;;0.50;0.50;;;20.60;61.90;;;;;;5023585;28;43494;-59
2022/10/01 04:55:57;;;;;;;0.43;0.43;;;20.60;61.90;;;;;;5019504;28;43470;-59
2022/10/01 04:58:25;;;;;;;0.50;0.50;;;20.60;61.90;;;;;;5024565;28;43790;-59
2022/10/01 05:00:53;;;;;;;0.50;0.50;;;20.60;61.90;;;;;;5023741;28;43368;-60
2022/10/01 05:03:26;;;;;;;0.50;0.50;;;20.60;61.90;;;;;;5029856;28;43493;-59
2022/10/01 05:05:53;;;;;;;0.50;0.45;;;20.60;61.90;;;;;;5023974;28;43506;-60
2022/10/01 05:08:22;;;;;;;0.40;0.40;;;20.50;61.90;;;;;;5006425;28;44060;-60
2022/10/01 05:10:49;;;;;;;0.47;0.47;;;20.60;61.90;;;;;;5023919;28;43476;-60
2022/10/01 05:13:16;;;;;;;0.50;0.50;;;20.60;61.80;;;;;;5022535;28;43467;-60
2022/10/01 05:15:46;;;;;;;0.60;0.57;;;20.60;61.80;;;;;;5022753;28;43612;-60
2022/10/01 05:18:14;;;;;;;0.40;0.38;;;20.60;61.80;;;;;;5024289;28;43765;-60
2022/10/01 05:20:41;;;;;;;0.60;0.60;;;20.60;61.90;;;;;;5023120;28;43368;-59
2022/10/01 05:23:09;;;;;;;1.00;0.60;;;20.60;61.80;;;;;;5024301;28;43381;-60
2022/10/01 05:25:36;;;;;;;0.47;0.47;;;20.60;61.90;;;;;;5021440;28;43505;-60
2022/10/01 05:28:04;;;;;;;0.50;0.50;;;20.50;61.80;;;;;;5043907;28;44676;-60
2022/10/01 05:30:33;;;;;;;0.50;0.50;;;20.50;61.80;;;;;;5022304;28;43682;-59
2022/10/01 05:33:03;;;;;;;0.45;0.45;;;20.60;61.80;;;;;;5024339;28;43431;-59
2022/10/01 05:35:31;;;;;;;0.40;0.40;;;20.50;61.90;;;;;;5023024;28;43539;-59
2022/10/01 05:38:01;;;;;;;0.50;0.50;;;20.50;61.90;;;;;;5023852;28;43797;-59
2022/10/01 05:40:29;;;;;;;0.63;0.63;;;20.60;61.90;;;;;;5023300;28;43424;-60
2022/10/01 05:42:58;;;;;;;0.50;0.50;;;20.50;61.90;;;;;;5022892;28;43463;-60
2022/10/01 05:45:27;;;;;;;0.50;0.50;;;20.60;62.00;;;;;;5023494;28;43420;-59
2022/10/01 05:47:57;;;;;;;0.40;0.40;;;20.50;61.90;;;;;;5022981;28;43818;-59
2022/10/01 05:50:27;;;;;;;0.57;0.57;;;20.50;62.00;;;;;;5023039;28;43424;-59
2022/10/01 05:52:54;;;;;;;0.33;0.33;;;20.50;62.10;;;;;;5024069;28;43511;-59
2022/10/01 05:55:23;;;;;;;0.50;0.50;;;20.50;62.10;;;;;;5022596;28;43447;-59
2022/10/01 05:57:55;;;;;;;0.50;0.50;;;20.50;62.20;;;;;;5022062;28;43923;-59
2022/10/01 06:00:23;;;;;;;0.40;0.40;;;20.50;62.10;;;;;;5023282;28;43435;-59
2022/10/01 06:02:52;;;;;;;0.50;0.50;;;20.50;62.20;;;;;;5021204;28;43507;-59
2022/10/01 06:05:20;;;;;;;0.40;0.40;;;20.50;62.20;;;;;;5021405;28;43602;-60
2022/10/01 06:07:48;;;;;;;0.43;0.40;;;20.50;62.20;;;;;;5021120;28;44693;-59
2022/10/01 06:10:16;;;;;;;0.40;0.40;;;20.50;62.20;;;;;;5014511;28;43368;-60
2022/10/01 06:12:44;;;;;;;0.40;0.40;;;20.50;62.30;;;;;;5027058;28;43450;-59
2022/10/01 06:15:12;;;;;;;0.60;0.60;;;20.50;62.30;;;;;;5022969;28;43419;-59
2022/10/01 06:17:43;;;;;;;1.27;0.50;;;20.50;62.30;;;;;;5053255;28;43916;-59
2022/10/01 06:20:19;;;;;;;0.50;0.50;;;20.50;62.30;;;;;;5022998;28;43550;-59
2022/10/01 06:22:55;;;;;;;1.98;1.88;;;20.50;62.40;;;;;;5023151;28;43559;-61
2022/10/01 06:25:23;;;;;;;2.47;1.40;;;20.50;62.60;;;;;;5021027;28;43407;-59
2022/10/01 06:27:56;;;;;;;2.03;1.90;;;20.50;62.60;;;;;;5023010;28;43634;-59
2022/10/01 06:30:30;;;;;;;2.55;2.45;;;20.50;62.60;;;;;;5021639;28;43461;-57
2022/10/01 06:33:07;;;;;;;2.90;2.13;;;20.50;62.60;;;;;;5021382;28;44005;-57
2022/10/01 06:35:38;;;;;;;2.05;1.95;;;20.50;62.50;;;;;;5022128;28;43490;-57
2022/10/01 06:38:07;;;;;;;3.13;1.80;;;20.60;62.50;;;;;;5021934;28;43792;-57
2022/10/01 06:40:35;;;;;;;1.63;1.60;;;20.60;62.40;;;;;;5020791;28;43379;-57
2022/10/01 06:43:04;;;;;;;2.05;1.85;;;20.60;62.40;;;;;;5022759;28;43435;-57
2022/10/01 06:45:34;;;;;;;1.80;1.70;;;20.70;62.30;;;;;;5019943;28;43490;-57
2022/10/01 06:48:01;;;;;;;1.70;1.60;;;20.70;62.20;;;;;;5022709;28;45293;-57
2022/10/01 06:50:33;;;;;;;2.38;1.42;;;20.80;62.10;;;;;;5021013;28;43505;-62
2022/10/01 06:53:01;;;;;;;1.95;1.50;;;20.90;62.10;;;;;;5018527;28;43461;-56
2022/10/01 06:55:31;;;;;;;1.50;1.40;;;20.90;62.10;;;;;;5019405;28;43526;-57
2022/10/01 06:58:01;;;;;;;4.13;1.70;;;20.90;62.10;;;;;;5020867;28;43897;-57
2022/10/01 07:00:30;;;;;;;2.10;1.40;;;21.00;62.20;;;;;;5020774;28;43558;-59
2022/10/01 07:02:58;;;;;;;2.50;1.52;;;21.00;62.20;;;;;;5021733;28;43462;-57
2022/10/01 07:05:27;;;;;;;2.03;1.50;;;21.10;62.10;;;;;;5020292;28;43510;-57
2022/10/01 07:07:54;;;;;;;2.13;1.52;;;21.10;62.20;;;;;;5018514;28;43627;-57
2022/10/01 07:10:22;;;;;;;1.65;1.30;;;21.20;62.10;;;;;;5023018;28;43495;-57
2022/10/01 07:12:50;;;;;;;2.65;1.60;;;21.20;62.00;;;;;;5020856;28;43409;-58
2022/10/01 07:15:21;;;;;;;2.95;1.30;;;21.30;61.90;;;;;;5020306;28;43411;-58
2022/10/01 07:17:50;;;;;;;2.90;1.30;;;21.30;61.80;;;;;;5019955;28;43899;-58
2022/10/01 07:20:19;;;;;;;3.45;1.35;;;21.40;61.80;;;;;;5019903;28;43551;-58
2022/10/01 07:22:47;;;;;;;1.63;1.38;;;21.40;61.90;;;;;;5053246;28;43449;-59
2022/10/01 07:25:15;;;;;;;2.00;1.30;;;21.50;61.70;;;;;;5019938;28;43465;-58
2022/10/01 07:27:43;;;;;;;1.40;1.25;;;21.50;61.60;;;;;;5020314;28;45040;-58
2022/10/01 07:30:10;;;;;;;1.77;1.33;;;21.60;61.60;;;;;;5020244;28;43988;-58
2022/10/01 07:32:38;;;;;;;1.30;1.20;;;21.70;61.40;;;;;;5020953;28;43437;-58
2022/10/01 07:35:07;;;;;;;1.42;1.05;;;21.80;61.30;;;;;;5016018;28;43512;-58
2022/10/01 07:37:35;;;;;;;1.65;1.00;;;22.00;61.10;;;;;;5016727;28;45158;-58
2022/10/01 07:40:02;;;;;;;1.88;1.30;;;22.10;60.80;;;;;;5021454;28;43722;-58
2022/10/01 07:42:34;;;;;;;2.05;1.17;;;22.30;60.60;;;;;;5020106;28;43519;-58
2022/10/01 07:45:05;;;;;;;1.48;1.15;;;22.40;60.50;;;;;;5021231;28;43522;-58
2022/10/01 07:47:33;;;;;;;1.50;1.00;;;22.60;60.30;;;;;;5019164;28;44684;-58
2022/10/01 07:50:00;;;;;;;2.65;1.33;;;22.70;60.00;;;;;;5019909;28;43383;-58
2022/10/01 07:52:28;;;;;;;2.20;1.20;;;22.80;59.80;;;;;;5052906;28;43473;-58
2022/10/01 07:54:55;;;;;;;1.40;1.27;;;22.90;59.60;;;;;;5019509;28;44088;-58
2022/10/01 07:57:23;;;;;;;1.40;1.20;;;23.00;59.40;;;;;;5020672;28;44734;-58
2022/10/01 07:59:50;;;;;;;2.75;1.27;;;23.00;59.40;;;;;;5020292;28;43498;-58
2022/10/01 08:02:22;;;;;;;1.50;1.27;;;23.10;59.20;;;;;;5018897;28;43420;-58
2022/10/01 08:07:36;;;;;;;2.92;1.17;;;23.20;59.00;;;;;;5019174;28;44684;-58
2022/10/01 08:10:04;;;;;;;2.08;1.30;;;23.30;59.00;;;;;;5020549;28;43426;-58
2022/10/01 08:12:31;;;;;;;1.70;1.17;;;23.30;58.90;;;;;;5019184;28;43509;-58
2022/10/01 08:15:05;;;;;;;2.00;1.30;;;23.30;58.90;;;;;;5020877;28;43606;-58
2022/10/01 08:17:33;;;;;;;2.15;1.45;;;23.30;58.90;;;;;;5019124;28;43784;-58
2022/10/01 08:20:01;;;;;;;2.05;1.05;;;23.30;58.80;;;;;;5020663;28;43568;-57
2022/10/01 08:22:28;;;;;;;2.45;1.38;;;23.40;58.90;;;;;;5019958;28;43407;-58
2022/10/01 08:24:56;;;;;;;4.43;1.40;;;23.40;58.90;;;;;;5019737;28;43510;-57
2022/10/01 08:27:24;;;;;;;2.88;1.35;;;23.30;59.00;;;;;;5019382;28;43790;-57
2022/10/01 08:29:52;;;;;;;3.00;1.30;;;23.30;58.90;;;;;;5019427;28;43431;-57
2022/10/01 08:32:22;;;;;;;2.42;1.33;;;23.30;59.00;;;;;;5020276;28;43417;-57
2022/10/01 08:34:50;;;;;;;1.75;1.13;;;23.30;59.00;;;;;;5020257;28;43572;-57
2022/10/01 08:37:29;;;;;;;2.15;1.20;;;23.20;59.00;;;;;;5016757;28;43876;-58
2022/10/01 08:39:56;;;;;;;2.65;1.60;;;23.20;59.20;;;;;;5017597;28;43470;-57
2022/10/01 08:42:24;;;;;;;2.65;1.20;;;23.20;59.20;;;;;;5020179;28;43559;-57
2022/10/01 08:44:52;;;;;;;3.22;1.30;;;23.10;59.30;;;;;;5019560;28;43495;-57
2022/10/01 08:47:38;;;;;;;2.85;1.33;;;23.10;59.40;;;;;;5033965;28;44077;-57
2022/10/01 08:50:15;;;;;;;2.28;1.10;;;23.10;59.30;;;;;;5020754;28;43704;-57
2022/10/01 08:52:59;;;;;;;3.03;1.17;;;23.10;59.50;;;;;;5019272;28;43455;-57
2022/10/01 08:55:35;;;;;;;2.60;1.10;;;23.00;59.50;;;;;;5016391;28;43463;-57
2022/10/01 08:58:05;;;;;;;1.48;1.38;;;23.00;59.60;;;;;;5019285;28;44738;-57
2022/10/01 09:00:37;;;;;;;1.70;0.98;;;23.00;59.60;;;;;;5020765;28;43357;-57
2022/10/01 09:03:09;;;;;;;2.28;1.08;;;22.90;59.70;;;;;;5023414;28;43453;-57
2022/10/01 09:05:42;;;;;;;2.13;1.25;;;22.90;59.80;;;;;;5021938;28;43455;-57
2022/10/01 09:08:15;;;;;;;3.08;1.27;;;22.90;59.90;;;;;;5022001;28;44035;-58
2022/10/01 09:10:44;;;;;;;4.15;1.00;;;22.80;60.10;;;;;;5022781;28;43889;-58
2022/10/01 09:13:30;;;;;;;2.13;1.10;;;22.80;60.00;;;;;;5022739;28;43526;-58
2022/10/01 09:16:09;;;;;;;2.42;1.20;;;22.80;60.10;;;;;;5021153;28;43555;-58
2022/10/01 09:18:56;;;;;;;5.18;1.52;;;22.70;60.20;;;;;;5019532;28;43773;-58
2022/10/01 09:21:45;;;;;;;2.40;1.25;;;22.70;60.20;;;;;;5023373;28;43690;-58
2022/10/01 09:24:25;;;;;;;1.90;1.08;;;22.70;60.30;;;;;;5023015;28;43875;-58
2022/10/01 09:26:52;;;;;;;2.35;1.27;;;22.70;60.30;;;;;;5022286;28;43454;-58
2022/10/01 09:29:29;;;;;;;3.78;1.38;;;22.70;60.40;;;;;;5023067;28;43937;-58
2022/10/01 09:31:58;;;;;;;1.58;0.88;;;22.70;60.50;;;;;;5020419;28;43484;-58
2022/10/01 09:34:41;;;;;;;2.53;1.10;;;22.60;60.40;;;;;;5022315;28;43450;-58
2022/10/01 09:37:21;;;;;;;1.98;1.15;;;22.70;60.60;;;;;;5021772;28;43487;-58
2022/10/01 09:39:54;;;;;;;2.75;1.27;;;22.60;60.60;;;;;;5022829;28;44854;-58
2022/10/01 09:42:26;;;;;;;2.92;1.20;;;22.60;60.60;;;;;;5022167;28;43453;-58
2022/10/01 09:44:54;;;;;;;2.42;1.10;;;22.60;60.70;;;;;;5022869;28;43494;-58
2022/10/01 09:47:24;;;;;;;1.73;1.20;;;22.60;60.80;;;;;;5021942;28;43487;-58
2022/10/01 09:49:53;;;;;;;2.85;1.23;;;22.60;60.90;;;;;;5022683;28;44682;-58
2022/10/01 09:52:32;;;;;;;2.35;1.10;;;22.60;60.90;;;;;;5022668;28;43463;-58
2022/10/01 09:55:26;;;;;;;2.30;1.08;;;22.60;60.90;;;;;;5021030;28;43371;-59
2022/10/01 09:58:00;;;;;;;2.38;1.35;;;22.50;60.90;;;;;;5020030;28;43603;-58
2022/10/01 10:00:29;;;;;;;3.83;1.20;;;22.50;61.10;;;;;;5022556;28;45103;-58
2022/10/01 10:02:57;;;;;;;3.38;1.17;;;22.50;61.20;;;;;;5020809;28;43961;-57
2022/10/01 10:05:37;;;;;;;1.35;1.00;;;22.40;61.20;;;;;;5022195;28;43457;-57
2022/10/01 10:08:14;;;;;;;2.60;1.40;;;22.40;61.20;;;;;;5022009;28;43411;-58
2022/10/01 10:11:09;;;;;;;1.88;1.30;;;22.40;61.10;;;;;;5020719;28;43810;-57
2022/10/01 10:13:40;;;;;;;2.60;1.10;;;22.40;61.20;;;;;;5021836;28;43442;-58
2022/10/01 10:16:29;;;;;;;2.95;1.15;;;22.40;61.20;;;;;;5021439;28;43449;-57
2022/10/01 10:19:08;;;;;;;1.83;0.90;;;22.40;61.20;;;;;;5021801;28;43450;-58
2022/10/01 10:21:36;;;;;;;2.10;1.13;;;22.50;61.30;;;;;;5020282;28;43883;-57
2022/10/01 10:24:20;;;;;;;2.40;1.10;;;22.40;61.10;;;;;;5021605;28;43478;-57
2022/10/01 10:26:53;;;;;;;1.98;0.82;;;22.50;61.20;;;;;;5019174;28;43452;-57
2022/10/01 10:29:33;;;;;;;1.10;0.80;;;22.50;61.20;;;;;;5021779;28;43509;-58
2022/10/01 10:32:13;;;;;;;2.90;1.15;;;22.50;61.30;;;;;;5021932;28;44676;-58
2022/10/01 10:34:45;;;;;;;2.80;1.20;;;22.50;61.30;;;;;;5021968;28;44062;-58
2022/10/01 10:37:23;;;;;;;1.38;0.80;;;22.50;61.30;;;;;;5021762;28;43412;-58
2022/10/01 10:39:52;;;;;;;2.83;1.10;;;22.50;61.30;;;;;;5019510;28;43388;-58
2022/10/01 10:42:21;;;;;;;1.25;0.90;;;22.50;61.30;;;;;;5021639;28;43749;-58
2022/10/01 10:44:53;;;;;;;1.88;1.02;;;22.40;61.30;;;;;;5020782;28;43694;-57
2022/10/01 10:47:23;;;;;;;3.10;0.98;;;22.40;61.30;;;;;;5021600;28;43452;-58
2022/10/01 10:49:52;;;;;;;1.88;1.00;;;22.40;61.30;;;;;;5022045;28;43515;-58
2022/10/01 10:52:28;;;;;;;1.55;0.80;;;22.40;61.30;;;;;;5020819;28;44671;-58
2022/10/01 10:54:58;;;;;;;1.77;0.90;;;22.40;61.30;;;;;;5018765;28;43486;-58
2022/10/01 10:57:29;;;;;;;0.93;0.80;;;22.40;61.40;;;;;;5053432;28;43464;-59
2022/10/01 11:00:00;;;;;;;;;;;22.40;61.50;;;;;;5022789;28;43428;-59
2022/10/01 11:02:31;;;;;;;1.08;0.77;;;22.40;61.50;;;;;;5021706;28;44627;-59
2022/10/01 11:05:19;;;;;;;2.25;0.88;;;22.40;61.70;;;;;;5020864;28;43583;-59
2022/10/01 11:07:49;;;;;;;1.80;0.90;;;22.40;61.80;;;;;;5016096;28;43502;-59
2022/10/01 11:10:40;;;;;;;2.35;0.80;;;22.40;61.80;;;;;;5022603;28;43479;-59
2022/10/01 11:13:38;;;;;;;2.45;0.80;;;22.40;61.80;;;;;;5025938;28;43787;-59
2022/10/01 11:16:08;;;;;;;1.15;0.70;;;22.30;61.80;;;;;;5021434;28;43932;-60
2022/10/01 11:18:57;;;;;;;1.90;1.00;;;22.30;61.80;;;;;;5020423;28;43489;-59
2022/10/01 11:21:47;;;;;;;2.92;0.88;;;22.30;61.90;;;;;;5020997;28;43388;-58
2022/10/01 11:24:44;;;;;;;2.30;0.93;;;22.30;62.00;;;;;;5018461;28;44665;-59
2022/10/01 11:27:23;;;;;;;1.50;0.77;;;22.30;62.00;;;;;;5017764;28;43479;-59
2022/10/01 11:30:02;;;;;;;1.13;0.80;;;22.30;62.00;;;;;;5021493;28;43435;-59
2022/10/01 11:32:47;;;;;;;1.25;0.70;;;22.40;62.00;;;;;;5020675;28;43566;-59
2022/10/01 11:35:43;;;;;;;1.45;0.90;;;22.40;61.90;;;;;;5018111;28;43879;-59
2022/10/01 11:38:28;;;;;;;0.80;0.68;;;22.40;61.80;;;;;;5010751;28;43538;-59
2022/10/01 11:41:13;;;;;;;1.38;0.90;;;22.50;61.90;;;;;;5020913;28;43485;-60
2022/10/01 11:43:48;;;;;;;1.20;0.57;;;22.50;61.80;;;;;;5020379;28;43448;-59
2022/10/01 11:46:37;;;;;;;1.58;0.90;;;22.50;61.80;;;;;;5019091;28;44669;-59
2022/10/01 11:49:28;;;;;;;1.13;1.00;;;22.50;61.80;;;;;;5020607;28;44279;-58
2022/10/01 11:52:17;;;;;;;1.65;1.10;;;22.50;61.70;;;;;;4999688;28;43513;-59
2022/10/01 11:58:49;;;;;;;2.90;1.02;;;22.50;61.70;;;;;;5020406;28;43467;-59
2022/10/01 12:00:40;;;;;;;1.00;0.80;;;22.60;61.70;;;;;;5019792;28;43367;-59
2022/10/01 12:03:17;;;;;;;1.52;1.00;;;22.60;61.80;;;;;;5053669;28;44069;-59
2022/10/01 12:05:45;;;;;;;1.08;0.90;;;22.70;61.80;;;;;;5018830;28;43356;-60
2022/10/01 12:08:23;;;;;;;2.35;1.10;;;22.70;61.80;;;;;;5020013;28;45137;-59
2022/10/01 12:11:21;;;;;;;1.65;1.00;;;22.70;61.80;;;;;;5019088;28;43435;-59
2022/10/01 12:14:00;;;;;;;1.67;1.30;;;22.70;61.80;;;;;;5019051;28;43479;-58
2022/10/01 12:16:31;;;;;;;3.42;1.20;;;22.80;61.90;;;;;;5018517;28;43564;-58
2022/10/01 12:19:10;;;;;;;2.47;1.20;;;22.70;61.80;;;;;;5016882;28;43861;-58
2022/10/01 12:21:42;;;;;;;1.77;1.05;;;22.80;61.90;;;;;;5018684;28;43452;-58
2022/10/01 12:24:17;;;;;;;2.55;1.42;;;22.80;61.80;;;;;;5019335;28;43421;-59
2022/10/01 12:26:58;;;;;;;3.75;1.30;;;22.80;61.70;;;;;;5020372;28;43512;-58
2022/10/01 12:29:49;;;;;;;2.42;1.40;;;22.80;61.60;;;;;;5016597;28;44681;-58
2022/10/01 12:32:38;;;;;;;2.58;1.35;;;22.80;61.50;;;;;;5021334;28;43403;-59
2022/10/01 12:35:12;;;;;;;1.83;1.27;;;22.80;61.60;;;;;;5022128;28;43441;-59
2022/10/01 12:37:39;;;;;;;4.40;1.27;;;22.80;61.60;;;;;;5021147;28;43415;-59
2022/10/01 12:40:19;;;;;;;2.22;1.20;;;22.80;61.50;;;;;;5023870;28;43793;-58
2022/10/01 12:43:21;;;;;;;1.80;0.90;;;22.80;61.50;;;;;;5020432;28;43372;-58
2022/10/01 12:46:11;;;;;;;1.23;1.10;;;22.80;61.70;;;;;;5023469;28;43360;-58
2022/10/01 12:48:47;;;;;;;1.90;1.20;;;22.80;61.70;;;;;;5020326;28;43505;-58
2022/10/01 12:51:21;;;;;;;2.80;1.35;;;22.80;61.80;;;;;;5022397;28;45732;-59
2022/10/01 12:54:25;;;;;;;2.58;1.35;;;22.80;61.70;;;;;;5023101;28;43417;-58
2022/10/01 12:56:56;;;;;;;2.08;1.13;;;22.80;61.70;;;;;;5021915;28;43408;-59
2022/10/01 12:59:43;;;;;;;2.63;1.10;;;22.80;61.60;;;;;;5023458;28;43608;-58
2022/10/01 13:02:23;;;;;;;2.88;1.30;;;22.80;61.60;;;;;;5020235;28;43787;-58
2022/10/01 13:05:12;;;;;;;4.38;1.30;;;22.80;61.60;;;;;;5020518;28;43484;-58
2022/10/01 13:07:53;;;;;;;2.92;1.33;;;22.80;61.70;;;;;;5022700;28;43502;-58
2022/10/01 13:10:34;;;;;;;3.08;1.30;;;22.80;61.60;;;;;;5024569;28;43605;-59
2022/10/01 13:13:20;;;;;;;2.85;1.40;;;22.80;61.50;;;;;;5022613;28;43880;-58
2022/10/01 13:16:01;;;;;;;2.08;1.30;;;22.80;61.50;;;;;;5020464;28;43752;-59
2022/10/01 13:19:06;;;;;;;1.83;1.05;;;22.80;61.50;;;;;;5021970;28;44193;-58
2022/10/01 13:22:06;;;;;;;3.53;1.27;;;22.80;61.50;;;;;;5022284;28;43498;-58
2022/10/01 13:24:48;;;;;;;3.35;1.23;;;22.80;61.60;;;;;;5020845;28;44800;-59
2022/10/01 13:27:22;;;;;;;4.10;1.67;;;22.80;61.40;;;;;;5019726;28;43470;-59
2022/10/01 13:30:03;;;;;;;2.80;1.25;;;22.70;61.50;;;;;;5022319;28;43581;-58
2022/10/01 13:32:52;;;;;;;2.65;1.20;;;22.70;61.50;;;;;;5021511;28;43520;-59